Time;durP1;ratioP1;P1;durP2;ratioP2;P2;SDS_P1;SDS_P2;PMS_P1;PMS_P2;Temp;Humidity;BMP_temperature;BMP_pressure;BME280_temperature;BME280_humidity;BME280_pressure;Samples;Min_cycle;Max_cycle;Signal;HPM_P1;HPM_P2
2023/04/28 00:02:08;;;;;;;;;;;;;;;;;;7365388;19;1849;-65
2023/04/28 00:04:36;;;;;;;;;;;;;;;;;;7365851;19;833;-65
2023/04/28 00:07:05;;;;;;;;;;;;;;;;;;7366129;19;854;-65
2023/04/28 00:09:33;;;;;;;;;;;;;;;;;;7364424;19;785;-65
2023/04/28 00:12:01;;;;;;;;;;;;;;;;;;7365627;19;1270;-65
2023/04/28 00:14:29;;;;;;;;;;;;;;;;;;7365561;19;1853;-64
2023/04/28 00:16:58;;;;;;;;;;;;;;;;;;7366244;19;858;-66
2023/04/28 00:19:26;;;;;;;;;;;;;;;;;;7365070;19;806;-65
2023/04/28 00:21:54;;;;;;;;;;;;;;;;;;7364570;19;1295;-65
2023/04/28 00:24:23;;;;;;;;;;;;;;;;;;7365780;19;841;-65
2023/04/28 00:26:51;;;;;;;;;;;;;;;;;;7365683;19;649;-65
2023/04/28 00:29:19;;;;;;;;;;;;;;;;;;7364972;19;771;-65
2023/04/28 00:31:47;;;;;;;;;;;;;;;;;;7363056;19;1247;-65
2023/04/28 00:34:15;;;;;;;;;;;;;;;;;;7363896;19;1834;-65
2023/04/28 00:36:43;;;;;;;;;;;;;;;;;;7363269;19;842;-65
2023/04/28 00:39:11;;;;;;;;;;;;;;;;;;7363558;19;821;-65
2023/04/28 00:41:40;;;;;;;;;;;;;;;;;;7362297;19;1270;-65
2023/04/28 00:44:08;;;;;;;;;;;;;;;;;;7363478;19;823;-65
2023/04/28 00:46:36;;;;;;;;;;;;;;;;;;7365533;19;772;-65
2023/04/28 00:49:04;;;;;;;;;;;;;;;;;;7363036;19;869;-65
2023/04/28 00:51:32;;;;;;;;;;;;;;;;;;7365417;19;1306;-64
2023/04/28 00:54:00;;;;;;;;;;;;;;;;;;7364601;19;928;-64
2023/04/28 00:56:29;;;;;;;;;;;;;;;;;;7363301;19;1842;-65
2023/04/28 00:58:58;;;;;;;;;;;;;;;;;;7364779;19;841;-65
2023/04/28 01:01:26;;;;;;;;;;;;;;;;;;7364080;19;767;-65
2023/04/28 01:03:54;;;;;;;;;;;;;;;;;;7362788;19;838;-64
2023/04/28 01:06:23;;;;;;;;;;;;;;;;;;7363163;19;796;-64
2023/04/28 01:08:53;;;;;;;;;;;;;;;;;;7361717;19;791;-65
2023/04/28 01:11:21;;;;;;;;;;;;;;;;;;7362912;19;985;-65
2023/04/28 01:14:05;;;;;;;;;;;;;;;;;;7361973;19;819;-65
2023/04/28 01:16:37;;;;;;;;;;;;;;;;;;7359183;19;1834;-64
2023/04/28 01:19:06;;;;;;;;;;;;;;;;;;7360979;19;834;-65
2023/04/28 01:21:34;;;;;;;;;;;;;;;;;;7363526;19;1305;-65
2023/04/28 01:24:10;;;;;;;;;;;;;;;;;;7362768;19;746;-65
2023/04/28 01:26:38;;;;;;;;;;;;;;;;;;7363474;19;879;-66
2023/04/28 01:29:06;;;;;;;;;;;;;;;;;;7362896;19;806;-65
2023/04/28 01:31:34;;;;;;;;;;;;;;;;;;7361760;19;1279;-65
2023/04/28 01:34:02;;;;;;;;;;;;;;;;;;7361707;19;751;-65
2023/04/28 01:36:31;;;;;;;;;;;;;;;;;;7359333;19;1850;-65
2023/04/28 01:39:00;;;;;;;;;;;;;;;;;;7362457;19;809;-65
2023/04/28 01:41:28;;;;;;;;;;;;;;;;;;7362087;19;1289;-64
2023/04/28 01:43:56;;;;;;;;;;;;;;;;;;7361152;19;836;-65
2023/04/28 01:46:24;;;;;;;;;;;;;;;;;;7361458;19;818;-64
2023/04/28 01:48:52;;;;;;;;;;;;;;;;;;7360256;19;790;-66
2023/04/28 01:51:20;;;;;;;;;;;;;;;;;;7362694;19;818;-65
2023/04/28 01:53:48;;;;;;;;;;;;;;;;;;7363361;19;1282;-65
2023/04/28 01:56:16;;;;;;;;;;;;;;;;;;7366912;19;1846;-65
2023/04/28 01:58:45;;;;;;;;;;;;;;;;;;7367425;19;795;-65
2023/04/28 02:01:14;;;;;;;;;;;;;;;;;;7369442;19;863;-64
2023/04/28 02:03:42;;;;;;;;;;;;;;;;;;7367870;19;1274;-66
2023/04/28 02:06:11;;;;;;;;;;;;;;;;;;7368691;19;811;-65
2023/04/28 02:08:39;;;;;;;;;;;;;;;;;;7367609;19;806;-65
2023/04/28 02:11:07;;;;;;;;;;;;;;;;;;7369545;19;838;-67
2023/04/28 02:13:35;;;;;;;;;;;;;;;;;;7366005;19;1385;-67
2023/04/28 02:16:03;;;;;;;;;;;;;;;;;;7366633;19;1849;-67
2023/04/28 02:18:32;;;;;;;;;;;;;;;;;;7367195;19;849;-66
2023/04/28 02:21:01;;;;;;;;;;;;;;;;;;7367685;19;741;-64
2023/04/28 02:23:29;;;;;;;;;;;;;;;;;;7367821;19;1314;-64
2023/04/28 02:25:58;;;;;;;;;;;;;;;;;;7370238;19;787;-65
2023/04/28 02:28:27;;;;;;;;;;;;;;;;;;7369095;19;789;-65
2023/04/28 02:30:55;;;;;;;;;;;;;;;;;;7367319;19;807;-64
2023/04/28 02:33:25;;;;;;;;;;;;;;;;;;7365232;19;1452;-64
2023/04/28 02:35:53;;;;;;;;;;;;;;;;;;7367660;19;1842;-65
2023/04/28 02:38:21;;;;;;;;;;;;;;;;;;7366060;19;778;-64
2023/04/28 02:40:50;;;;;;;;;;;;;;;;;;7367017;19;829;-65
2023/04/28 02:43:18;;;;;;;;;;;;;;;;;;7366737;19;1266;-65
2023/04/28 02:45:46;;;;;;;;;;;;;;;;;;7366776;19;819;-65
2023/04/28 02:48:14;;;;;;;;;;;;;;;;;;7365772;19;869;-65
2023/04/28 02:50:44;;;;;;;;;;;;;;;;;;7366153;19;833;-65
2023/04/28 02:53:13;;;;;;;;;;;;;;;;;;7366195;19;1286;-65
2023/04/28 02:55:41;;;;;;;;;;;;;;;;;;7365965;19;1865;-65
2023/04/28 02:58:09;;;;;;;;;;;;;;;;;;7365562;19;853;-65
2023/04/28 03:00:37;;;;;;;;;;;;;;;;;;7365851;19;783;-67
2023/04/28 03:03:05;;;;;;;;;;;;;;;;;;7363930;19;1393;-65
2023/04/28 03:05:34;;;;;;;;;;;;;;;;;;7364916;19;826;-65
2023/04/28 03:08:02;;;;;;;;;;;;;;;;;;7365196;19;860;-64
2023/04/28 03:10:30;;;;;;;;;;;;;;;;;;7365834;19;851;-65
2023/04/28 03:12:58;;;;;;;;;;;;;;;;;;7364728;19;1353;-65
2023/04/28 03:15:27;;;;;;;;;;;;;;;;;;7365539;19;1841;-65
2023/04/28 03:17:55;;;;;;;;;;;;;;;;;;7366439;19;821;-65
2023/04/28 03:20:23;;;;;;;;;;;;;;;;;;7365303;19;898;-64
2023/04/28 03:22:51;;;;;;;;;;;;;;;;;;7364870;19;1362;-67
2023/04/28 03:25:20;;;;;;;;;;;;;;;;;;7365390;19;926;-66
2023/04/28 03:27:50;;;;;;;;;;;;;;;;;;7365475;19;796;-66
2023/04/28 03:30:18;;;;;;;;;;;;;;;;;;7365111;19;830;-63
2023/04/28 03:32:47;;;;;;;;;;;;;;;;;;7364059;19;1345;-65
2023/04/28 03:35:16;;;;;;;;;;;;;;;;;;7364993;19;1846;-65
2023/04/28 03:37:45;;;;;;;;;;;;;;;;;;7364277;19;954;-64
2023/04/28 03:40:13;;;;;;;;;;;;;;;;;;7365253;19;764;-65
2023/04/28 03:42:58;;;;;;;;;;;;;;;;;;7363662;19;1369;-64
2023/04/28 03:45:30;;;;;;;;;;;;;;;;;;7365577;19;937;-65
2023/04/28 03:47:58;;;;;;;;;;;;;;;;;;7364322;19;772;-64
2023/04/28 03:50:27;;;;;;;;;;;;;;;;;;7365064;19;978;-64
2023/04/28 03:52:56;;;;;;;;;;;;;;;;;;7362843;19;1353;-64
2023/04/28 03:55:25;;;;;;;;;;;;;;;;;;7365070;19;1846;-65
2023/04/28 03:57:54;;;;;;;;;;;;;;;;;;7366059;19;841;-64
2023/04/28 04:00:22;;;;;;;;;;;;;;;;;;7364553;19;936;-64
2023/04/28 04:02:53;;;;;;;;;;;;;;;;;;7362751;19;1330;-64
2023/04/28 04:05:22;;;;;;;;;;;;;;;;;;7364531;19;822;-64
2023/04/28 04:07:50;;;;;;;;;;;;;;;;;;7364678;19;824;-65
2023/04/28 04:10:18;;;;;;;;;;;;;;;;;;7364456;19;862;-64
2023/04/28 04:12:46;;;;;;;;;;;;;;;;;;7362827;19;1286;-65
2023/04/28 04:15:14;;;;;;;;;;;;;;;;;;7362749;19;1830;-64
2023/04/28 04:17:44;;;;;;;;;;;;;;;;;;7363656;19;808;-64
2023/04/28 04:20:12;;;;;;;;;;;;;;;;;;7365372;19;827;-65
2023/04/28 04:22:41;;;;;;;;;;;;;;;;;;7364057;19;1342;-65
2023/04/28 04:25:09;;;;;;;;;;;;;;;;;;7364414;19;838;-64
2023/04/28 04:27:37;;;;;;;;;;;;;;;;;;7365331;19;866;-65
2023/04/28 04:30:06;;;;;;;;;;;;;;;;;;7363415;19;1028;-64
2023/04/28 04:32:34;;;;;;;;;;;;;;;;;;7363004;19;1364;-64
2023/04/28 04:35:02;;;;;;;;;;;;;;;;;;7363951;19;784;-65
2023/04/28 04:37:30;;;;;;;;;;;;;;;;;;7360613;19;1861;-65
2023/04/28 04:40:02;;;;;;;;;;;;;;;;;;7363782;19;761;-65
2023/04/28 04:42:35;;;;;;;;;;;;;;;;;;7362124;19;1340;-64
2023/04/28 04:45:08;;;;;;;;;;;;;;;;;;7363538;19;797;-64
2023/04/28 04:47:37;;;;;;;;;;;;;;;;;;7362978;19;747;-64
2023/04/28 04:50:05;;;;;;;;;;;;;;;;;;7364789;19;830;-64
2023/04/28 04:52:33;;;;;;;;;;;;;;;;;;7362431;19;1333;-65
2023/04/28 04:55:01;;;;;;;;;;;;;;;;;;7363109;19;830;-65
2023/04/28 04:57:30;;;;;;;;;;;;;;;;;;7361011;19;1845;-64
2023/04/28 05:00:11;;;;;;;;;;;;;;;;;;7364402;19;794;-64
2023/04/28 05:02:40;;;;;;;;;;;;;;;;;;7362897;19;1314;-63
2023/04/28 05:05:08;;;;;;;;;;;;;;;;;;7364943;19;841;-65
2023/04/28 05:07:36;;;;;;;;;;;;;;;;;;7364199;19;775;-65
2023/04/28 05:10:06;;;;;;;;;;;;;;;;;;7363470;19;906;-65
2023/04/28 05:12:34;;;;;;;;;;;;;;;;;;7362570;19;1276;-65
2023/04/28 05:15:02;;;;;;;;;;;;;;;;;;7364423;19;886;-65
2023/04/28 05:17:32;;;;;;;;;;;;;;;;;;7360711;19;1861;-65
2023/04/28 05:20:00;;;;;;;;;;;;;;;;;;7361865;19;787;-66
2023/04/28 05:22:30;;;;;;;;;;;;;;;;;;7362009;19;1279;-66
2023/04/28 05:24:58;;;;;;;;;;;;;;;;;;7362391;19;858;-65
2023/04/28 05:27:26;;;;;;;;;;;;;;;;;;7365150;19;830;-66
2023/04/28 05:29:55;;;;;;;;;;;;;;;;;;7368076;19;897;-66
2023/04/28 05:32:23;;;;;;;;;;;;;;;;;;7367934;19;1289;-65
2023/04/28 05:34:51;;;;;;;;;;;;;;;;;;7368966;19;789;-65
2023/04/28 05:37:19;;;;;;;;;;;;;;;;;;7367923;19;1867;-66
2023/04/28 05:39:47;;;;;;;;;;;;;;;;;;7367837;19;839;-66
2023/04/28 05:42:16;;;;;;;;;;;;;;;;;;7368173;19;1358;-65
2023/04/28 05:44:44;;;;;;;;;;;;;;;;;;7368686;19;787;-65
2023/04/28 05:47:13;;;;;;;;;;;;;;;;;;7368247;19;869;-65
2023/04/28 05:49:41;;;;;;;;;;;;;;;;;;7368107;19;874;-65
2023/04/28 05:52:09;;;;;;;;;;;;;;;;;;7368014;19;1322;-66
2023/04/28 05:54:38;;;;;;;;;;;;;;;;;;7369267;19;810;-66
2023/04/28 05:57:06;;;;;;;;;;;;;;;;;;7367847;19;1870;-68
2023/04/28 05:59:34;;;;;;;;;;;;;;;;;;7369662;19;732;-66
2023/04/28 06:02:02;;;;;;;;;;;;;;;;;;7368036;19;1212;-66
2023/04/28 06:04:30;;;;;;;;;;;;;;;;;;7368974;19;792;-66
2023/04/28 06:06:59;;;;;;;;;;;;;;;;;;7368413;19;811;-66
2023/04/28 06:09:28;;;;;;;;;;;;;;;;;;7367763;19;807;-66
2023/04/28 06:11:56;;;;;;;;;;;;;;;;;;7367664;19;1342;-66
2023/04/28 06:14:24;;;;;;;;;;;;;;;;;;7368501;19;939;-66
2023/04/28 06:16:53;;;;;;;;;;;;;;;;;;7368670;19;1806;-66
2023/04/28 06:19:21;;;;;;;;;;;;;;;;;;7366864;19;807;-67
2023/04/28 06:21:50;;;;;;;;;;;;;;;;;;7368136;19;1283;-67
2023/04/28 06:24:18;;;;;;;;;;;;;;;;;;7368702;19;719;-67
2023/04/28 06:26:47;;;;;;;;;;;;;;;;;;7367776;19;1028;-66
2023/04/28 06:29:15;;;;;;;;;;;;;;;;;;7368492;19;806;-67
2023/04/28 06:31:43;;;;;;;;;;;;;;;;;;7368379;19;1278;-67
2023/04/28 06:34:12;;;;;;;;;;;;;;;;;;7368612;19;850;-67
2023/04/28 06:36:40;;;;;;;;;;;;;;;;;;7367863;19;1847;-67
2023/04/28 06:39:08;;;;;;;;;;;;;;;;;;7367001;19;851;-67
2023/04/28 06:41:36;;;;;;;;;;;;;;;;;;7368416;19;1280;-68
2023/04/28 06:44:06;;;;;;;;;;;;;;;;;;7367500;19;779;-67
2023/04/28 06:46:36;;;;;;;;;;;;;;;;;;7368326;19;831;-67
2023/04/28 06:49:04;;;;;;;;;;;;;;;;;;7367588;19;867;-68
2023/04/28 06:51:33;;;;;;;;;;;;;;;;;;7369404;19;1290;-67
2023/04/28 06:54:01;;;;;;;;;;;;;;;;;;7369113;19;802;-67
2023/04/28 06:56:29;;;;;;;;;;;;;;;;;;7368963;19;1849;-63
2023/04/28 06:58:58;;;;;;;;;;;;;;;;;;7367648;19;806;-64
2023/04/28 07:01:26;;;;;;;;;;;;;;;;;;7368632;19;773;-67
2023/04/28 07:03:54;;;;;;;;;;;;;;;;;;7365230;19;881;-69
2023/04/28 07:06:22;;;;;;;;;;;;;;;;;;7369215;19;871;-67
2023/04/28 07:08:50;;;;;;;;;;;;;;;;;;7369078;19;866;-69
2023/04/28 07:11:18;;;;;;;;;;;;;;;;;;7369214;19;861;-66
2023/04/28 07:13:50;;;;;;;;;;;;;;;;;;7366561;19;1333;-65
2023/04/28 07:16:18;;;;;;;;;;;;;;;;;;7368717;19;1857;-64
2023/04/28 07:18:46;;;;;;;;;;;;;;;;;;7368132;19;803;-64
2023/04/28 07:21:14;;;;;;;;;;;;;;;;;;7369599;19;874;-64
2023/04/28 07:23:42;;;;;;;;;;;;;;;;;;7366263;19;1340;-65
2023/04/28 07:26:11;;;;;;;;;;;;;;;;;;7368817;19;824;-64
2023/04/28 07:28:39;;;;;;;;;;;;;;;;;;7367802;19;849;-67
2023/04/28 07:31:07;;;;;;;;;;;;;;;;;;7368732;19;1083;-67
2023/04/28 07:33:35;;;;;;;;;;;;;;;;;;7365542;19;1325;-65
2023/04/28 07:36:03;;;;;;;;;;;;;;;;;;7368420;19;892;-68
2023/04/28 07:38:31;;;;;;;;;;;;;;;;;;7365566;19;1841;-66
2023/04/28 07:40:59;;;;;;;;;;;;;;;;;;7368203;19;869;-66
2023/04/28 07:43:28;;;;;;;;;;;;;;;;;;7366958;19;1263;-65
2023/04/28 07:45:56;;;;;;;;;;;;;;;;;;7367996;19;881;-65
2023/04/28 07:48:24;;;;;;;;;;;;;;;;;;7366693;19;778;-64
2023/04/28 07:50:53;;;;;;;;;;;;;;;;;;7365411;19;790;-66
2023/04/28 07:53:21;;;;;;;;;;;;;;;;;;7365790;19;1325;-64
2023/04/28 07:55:49;;;;;;;;;;;;;;;;;;7367555;19;818;-64
2023/04/28 07:58:17;;;;;;;;;;;;;;;;;;7364398;19;1838;-63
2023/04/28 08:00:45;;;;;;;;;;;;;;;;;;7367895;19;814;-63
2023/04/28 08:03:13;;;;;;;;;;;;;;;;;;7365080;19;1283;-64
2023/04/28 08:05:41;;;;;;;;;;;;;;;;;;7367342;19;823;-61
2023/04/28 08:08:10;;;;;;;;;;;;;;;;;;7365753;19;826;-64
2023/04/28 08:10:39;;;;;;;;;;;;;;;;;;7367864;19;850;-66
2023/04/28 08:13:07;;;;;;;;;;;;;;;;;;7365588;19;1282;-62
2023/04/28 08:15:35;;;;;;;;;;;;;;;;;;7367335;19;769;-63
2023/04/28 08:18:03;;;;;;;;;;;;;;;;;;7363927;19;1830;-64
2023/04/28 08:20:31;;;;;;;;;;;;;;;;;;7365607;19;788;-63
2023/04/28 08:23:00;;;;;;;;;;;;;;;;;;7365065;19;1846;-62
2023/04/28 08:25:28;;;;;;;;;;;;;;;;;;7367158;19;828;-60
2023/04/28 08:27:57;;;;;;;;;;;;;;;;;;7366030;19;794;-60
2023/04/28 08:30:25;;;;;;;;;;;;;;;;;;7366778;19;834;-63
2023/04/28 08:32:53;;;;;;;;;;;;;;;;;;7365084;19;1278;-65
2023/04/28 08:35:21;;;;;;;;;;;;;;;;;;7366759;19;870;-61
2023/04/28 08:37:50;;;;;;;;;;;;;;;;;;7364506;19;1842;-62
2023/04/28 08:40:18;;;;;;;;;;;;;;;;;;7366588;19;803;-63
2023/04/28 08:42:46;;;;;;;;;;;;;;;;;;7365088;19;1309;-63
2023/04/28 08:45:14;;;;;;;;;;;;;;;;;;7366899;19;851;-63
2023/04/28 08:47:44;;;;;;;;;;;;;;;;;;7365708;19;814;-64
2023/04/28 08:50:13;;;;;;;;;;;;;;;;;;7366957;19;925;-63
2023/04/28 08:52:41;;;;;;;;;;;;;;;;;;7364993;19;1344;-66
2023/04/28 08:55:09;;;;;;;;;;;;;;;;;;7366525;19;844;-65
2023/04/28 08:57:38;;;;;;;;;;;;;;;;;;7364334;19;1842;-65
2023/04/28 09:00:06;;;;;;;;;;;;;;;;;;7366149;19;727;-63
2023/04/28 09:02:36;;;;;;;;;;;;;;;;;;7363284;19;1280;-63
2023/04/28 09:05:04;;;;;;;;;;;;;;;;;;7366973;19;846;-64
2023/04/28 09:07:32;;;;;;;;;;;;;;;;;;7365423;19;862;-62
2023/04/28 09:10:00;;;;;;;;;;;;;;;;;;7368067;19;1249;-63
2023/04/28 09:12:31;;;;;;;;;;;;;;;;;;7362413;19;1294;-62
2023/04/28 09:15:08;;;;;;;;;;;;;;;;;;7368870;19;1315;-63
2023/04/28 09:17:36;;;;;;;;;;;;;;;;;;7364086;19;1850;-63
2023/04/28 09:20:04;;;;;;;;;;;;;;;;;;7363519;19;805;-63
2023/04/28 09:22:34;;;;;;;;;;;;;;;;;;7363898;19;1294;-66
2023/04/28 09:25:02;;;;;;;;;;;;;;;;;;7365206;19;829;-63
2023/04/28 09:27:30;;;;;;;;;;;;;;;;;;7364853;19;749;-63
2023/04/28 09:29:58;;;;;;;;;;;;;;;;;;7364108;19;864;-65
2023/04/28 09:32:27;;;;;;;;;;;;;;;;;;7363620;19;1262;-66
2023/04/28 09:34:55;;;;;;;;;;;;;;;;;;7364544;19;838;-63
2023/04/28 09:37:23;;;;;;;;;;;;;;;;;;7363492;19;1855;-65
2023/04/28 09:39:52;;;;;;;;;;;;;;;;;;7364228;19;853;-62
2023/04/28 09:42:20;;;;;;;;;;;;;;;;;;7363883;19;1266;-62
2023/04/28 09:44:48;;;;;;;;;;;;;;;;;;7364680;19;826;-64
2023/04/28 09:47:17;;;;;;;;;;;;;;;;;;7363758;19;794;-64
2023/04/28 09:49:45;;;;;;;;;;;;;;;;;;7363283;19;908;-67
2023/04/28 09:52:13;;;;;;;;;;;;;;;;;;7362803;19;1289;-65
2023/04/28 09:54:41;;;;;;;;;;;;;;;;;;7363449;19;852;-68
2023/04/28 09:57:09;;;;;;;;;;;;;;;;;;7363611;19;1842;-65
2023/04/28 09:59:37;;;;;;;;;;;;;;;;;;7362908;19;844;-65
2023/04/28 10:02:06;;;;;;;;;;;;;;;;;;7362988;19;1285;-64
2023/04/28 10:04:34;;;;;;;;;;;;;;;;;;7364237;19;851;-64
2023/04/28 10:07:02;;;;;;;;;;;;;;;;;;7364382;19;876;-65
2023/04/28 10:09:31;;;;;;;;;;;;;;;;;;7363134;19;852;-65
2023/04/28 10:11:59;;;;;;;;;;;;;;;;;;7363123;19;1266;-64
2023/04/28 10:14:27;;;;;;;;;;;;;;;;;;7367696;19;1371;-67
2023/04/28 10:16:56;;;;;;;;;;;;;;;;;;7374795;19;1791;-67
2023/04/28 10:19:24;;;;;;;;;;;;;;;;;;7367080;19;1853;-65
2023/04/28 10:21:52;;;;;;;;;;;;;;;;;;7370266;19;1297;-65
2023/04/28 10:24:20;;;;;;;;;;;;;;;;;;7370261;19;802;-65
2023/04/28 10:26:48;;;;;;;;;;;;;;;;;;7370241;19;884;-65
2023/04/28 10:29:16;;;;;;;;;;;;;;;;;;7369394;19;917;-64
2023/04/28 10:31:45;;;;;;;;;;;;;;;;;;7369910;19;1341;-64
2023/04/28 10:34:13;;;;;;;;;;;;;;;;;;7369926;19;861;-65
2023/04/28 10:36:41;;;;;;;;;;;;;;;;;;7369753;19;822;-64
2023/04/28 10:39:09;;;;;;;;;;;;;;;;;;7367508;19;1854;-65
2023/04/28 10:41:38;;;;;;;;;;;;;;;;;;7369590;19;1348;-65
2023/04/28 10:44:06;;;;;;;;;;;;;;;;;;7369272;19;798;-65
2023/04/28 10:46:35;;;;;;;;;;;;;;;;;;7369445;19;835;-64
2023/04/28 10:49:03;;;;;;;;;;;;;;;;;;7368619;19;873;-65
2023/04/28 10:51:31;;;;;;;;;;;;;;;;;;7369220;19;1873;-65
2023/04/28 10:54:00;;;;;;;;;;;;;;;;;;7370268;19;853;-64
2023/04/28 10:56:28;;;;;;;;;;;;;;;;;;7371003;19;794;-64
2023/04/28 10:58:56;;;;;;;;;;;;;;;;;;7367865;19;1834;-64
2023/04/28 11:01:24;;;;;;;;;;;;;;;;;;7371400;19;821;-64
2023/04/28 11:03:52;;;;;;;;;;;;;;;;;;7368818;19;1237;-64
2023/04/28 11:06:24;;;;;;;;;;;;;;;;;;7372540;19;913;-64
2023/04/28 11:08:54;;;;;;;;;;;;;;;;;;7369945;19;849;-63
2023/04/28 11:11:23;;;;;;;;;;;;;;;;;;7370929;19;818;-65
2023/04/28 11:13:51;;;;;;;;;;;;;;;;;;7367149;19;1261;-65
2023/04/28 11:16:19;;;;;;;;;;;;;;;;;;7369356;19;837;-65
2023/04/28 11:18:47;;;;;;;;;;;;;;;;;;7367295;19;1847;-67
2023/04/28 11:21:15;;;;;;;;;;;;;;;;;;7367329;19;812;-67
2023/04/28 11:23:43;;;;;;;;;;;;;;;;;;7365392;19;1286;-66
2023/04/28 11:26:12;;;;;;;;;;;;;;;;;;7366097;19;942;-66
2023/04/28 11:28:41;;;;;;;;;;;;;;;;;;7367642;19;870;-65
2023/04/28 11:31:10;;;;;;;;;;;;;;;;;;7368641;19;859;-67
2023/04/28 11:33:38;;;;;;;;;;;;;;;;;;7366283;19;1275;-67
2023/04/28 11:36:06;;;;;;;;;;;;;;;;;;7368564;19;841;-66
2023/04/28 11:38:34;;;;;;;;;;;;;;;;;;7365521;19;1849;-66
2023/04/28 11:41:02;;;;;;;;;;;;;;;;;;7369287;19;802;-67
2023/04/28 11:43:30;;;;;;;;;;;;;;;;;;7366265;19;1266;-64
2023/04/28 11:45:59;;;;;;;;;;;;;;;;;;7368338;19;874;-63
2023/04/28 11:48:27;;;;;;;;;;;;;;;;;;7365764;19;772;-62
2023/04/28 11:50:55;;;;;;;;;;;;;;;;;;7368205;19;950;-62
2023/04/28 11:53:23;;;;;;;;;;;;;;;;;;7365194;19;1322;-63
2023/04/28 11:55:51;;;;;;;;;;;;;;;;;;7367980;19;858;-63
2023/04/28 11:58:21;;;;;;;;;;;;;;;;;;7366565;19;1838;-64
2023/04/28 12:00:49;;;;;;;;;;;;;;;;;;7368155;19;870;-62
2023/04/28 12:03:17;;;;;;;;;;;;;;;;;;7365159;19;1306;-65
2023/04/28 12:05:45;;;;;;;;;;;;;;;;;;7367209;19;838;-65
2023/04/28 12:08:14;;;;;;;;;;;;;;;;;;7366687;19;838;-63
2023/04/28 12:10:42;;;;;;;;;;;;;;;;;;7367502;19;844;-66
2023/04/28 12:13:10;;;;;;;;;;;;;;;;;;7365630;19;1257;-64
2023/04/28 12:15:39;;;;;;;;;;;;;;;;;;7367251;19;837;-65
2023/04/28 12:18:07;;;;;;;;;;;;;;;;;;7365657;19;1853;-63
2023/04/28 12:20:35;;;;;;;;;;;;;;;;;;7365653;19;803;-66
2023/04/28 12:23:04;;;;;;;;;;;;;;;;;;7365466;19;1344;-65
2023/04/28 12:25:32;;;;;;;;;;;;;;;;;;7367111;19;762;-64
2023/04/28 12:28:01;;;;;;;;;;;;;;;;;;7365765;19;873;-63
2023/04/28 12:30:29;;;;;;;;;;;;;;;;;;7367472;19;884;-64
2023/04/28 12:32:57;;;;;;;;;;;;;;;;;;7364264;19;1344;-62
2023/04/28 12:35:25;;;;;;;;;;;;;;;;;;7366250;19;874;-66
2023/04/28 12:37:54;;;;;;;;;;;;;;;;;;7362094;19;1834;-66
2023/04/28 12:40:23;;;;;;;;;;;;;;;;;;7366380;19;810;-63
2023/04/28 12:42:51;;;;;;;;;;;;;;;;;;7364881;19;1286;-62
2023/04/28 12:45:19;;;;;;;;;;;;;;;;;;7366587;19;883;-62
2023/04/28 12:47:47;;;;;;;;;;;;;;;;;;7365312;19;1903;-61
2023/04/28 12:50:15;;;;;;;;;;;;;;;;;;7369175;19;1810;-62
2023/04/28 12:52:43;;;;;;;;;;;;;;;;;;7364819;19;1227;-62
2023/04/28 12:55:12;;;;;;;;;;;;;;;;;;7365875;19;950;-63
2023/04/28 12:57:40;;;;;;;;;;;;;;;;;;7365515;19;861;-64
2023/04/28 13:00:09;;;;;;;;;;;;;;;;;;7362935;19;1846;-65
2023/04/28 13:02:37;;;;;;;;;;;;;;;;;;7364130;19;1417;-64
2023/04/28 13:05:06;;;;;;;;;;;;;;;;;;7366041;19;882;-64
2023/04/28 13:07:34;;;;;;;;;;;;;;;;;;7365876;19;790;-63
2023/04/28 13:10:02;;;;;;;;;;;;;;;;;;7365484;19;815;-63
2023/04/28 13:12:30;;;;;;;;;;;;;;;;;;7364231;19;1258;-62
2023/04/28 13:14:59;;;;;;;;;;;;;;;;;;7365344;19;856;-64
2023/04/28 13:17:27;;;;;;;;;;;;;;;;;;7364883;19;803;-64
2023/04/28 13:19:56;;;;;;;;;;;;;;;;;;7360615;19;1849;-64
2023/04/28 13:22:24;;;;;;;;;;;;;;;;;;7364179;19;1357;-62
2023/04/28 13:24:52;;;;;;;;;;;;;;;;;;7365186;19;814;-65
2023/04/28 13:27:21;;;;;;;;;;;;;;;;;;7365062;19;727;-62
2023/04/28 13:29:49;;;;;;;;;;;;;;;;;;7364466;19;867;-64
2023/04/28 13:32:17;;;;;;;;;;;;;;;;;;7363665;19;1305;-65
2023/04/28 13:34:45;;;;;;;;;;;;;;;;;;7365096;19;767;-63
2023/04/28 13:37:14;;;;;;;;;;;;;;;;;;7365095;19;842;-64
2023/04/28 13:39:42;;;;;;;;;;;;;;;;;;7360157;19;1838;-65
2023/04/28 13:42:12;;;;;;;;;;;;;;;;;;7363473;19;1417;-64
2023/04/28 13:44:40;;;;;;;;;;;;;;;;;;7365603;19;730;-64
2023/04/28 13:47:09;;;;;;;;;;;;;;;;;;7363935;19;840;-63
2023/04/28 13:49:38;;;;;;;;;;;;;;;;;;7368957;19;788;-64
2023/04/28 13:52:06;;;;;;;;;;;;;;;;;;7369776;19;1239;-62
2023/04/28 13:54:34;;;;;;;;;;;;;;;;;;7370451;19;870;-64
2023/04/28 13:57:03;;;;;;;;;;;;;;;;;;7370401;19;785;-61
2023/04/28 13:59:31;;;;;;;;;;;;;;;;;;7368470;19;1846;-63
2023/04/28 14:02:00;;;;;;;;;;;;;;;;;;7370539;19;1333;-63
2023/04/28 14:04:28;;;;;;;;;;;;;;;;;;7369948;19;1135;-65
2023/04/28 14:06:56;;;;;;;;;;;;;;;;;;7369543;19;845;-63
2023/04/28 14:09:24;;;;;;;;;;;;;;;;;;7370693;19;815;-65
2023/04/28 14:11:55;;;;;;;;;;;;;;;;;;7370275;19;1340;-64
2023/04/28 14:14:23;;;;;;;;;;;;;;;;;;7370788;19;778;-64
2023/04/28 14:16:51;;;;;;;;;;;;;;;;;;7370416;19;786;-63
2023/04/28 14:19:19;;;;;;;;;;;;;;;;;;7369139;19;1842;-65
2023/04/28 14:21:48;;;;;;;;;;;;;;;;;;7370129;19;1365;-63
2023/04/28 14:24:17;;;;;;;;;;;;;;;;;;7370555;19;814;-63
2023/04/28 14:26:46;;;;;;;;;;;;;;;;;;7370286;19;818;-64
2023/04/28 14:29:14;;;;;;;;;;;;;;;;;;7369439;19;958;-62
2023/04/28 14:31:42;;;;;;;;;;;;;;;;;;7368166;19;1322;-61
2023/04/28 14:34:10;;;;;;;;;;;;;;;;;;7366582;19;1566;-64
2023/04/28 14:36:40;;;;;;;;;;;;;;;;;;7369660;19;798;-61
2023/04/28 14:39:08;;;;;;;;;;;;;;;;;;7368995;19;1847;-63
2023/04/28 14:41:36;;;;;;;;;;;;;;;;;;7370113;19;1306;-58
2023/04/28 14:44:05;;;;;;;;;;;;;;;;;;7369461;19;814;-61
2023/04/28 14:46:33;;;;;;;;;;;;;;;;;;7370104;19;862;-63
2023/04/28 14:49:01;;;;;;;;;;;;;;;;;;7368823;19;873;-62
2023/04/28 14:51:30;;;;;;;;;;;;;;;;;;7368308;19;846;-63
2023/04/28 14:53:58;;;;;;;;;;;;;;;;;;7367160;19;856;-59
2023/04/28 14:56:26;;;;;;;;;;;;;;;;;;7368813;19;863;-61
2023/04/28 14:58:54;;;;;;;;;;;;;;;;;;7367789;19;1845;-64
2023/04/28 15:01:22;;;;;;;;;;;;;;;;;;7367584;19;887;-63
2023/04/28 15:03:50;;;;;;;;;;;;;;;;;;7366221;19;1263;-63
2023/04/28 15:06:19;;;;;;;;;;;;;;;;;;7369245;19;814;-63
2023/04/28 15:08:47;;;;;;;;;;;;;;;;;;7369449;19;809;-64
2023/04/28 15:11:15;;;;;;;;;;;;;;;;;;7368696;19;822;-64
2023/04/28 15:13:43;;;;;;;;;;;;;;;;;;7365956;19;1277;-64
2023/04/28 15:16:11;;;;;;;;;;;;;;;;;;7368830;19;845;-62
2023/04/28 15:18:39;;;;;;;;;;;;;;;;;;7368357;19;1850;-64
2023/04/28 15:21:07;;;;;;;;;;;;;;;;;;7368939;19;845;-64
2023/04/28 15:23:35;;;;;;;;;;;;;;;;;;7366344;19;1337;-63
2023/04/28 15:26:04;;;;;;;;;;;;;;;;;;7368381;19;801;-63
2023/04/28 15:28:32;;;;;;;;;;;;;;;;;;7367739;19;836;-63
2023/04/28 15:31:00;;;;;;;;;;;;;;;;;;7368456;19;806;-60
2023/04/28 15:33:28;;;;;;;;;;;;;;;;;;7366423;19;1230;-66
2023/04/28 15:35:56;;;;;;;;;;;;;;;;;;7368332;19;802;-64
2023/04/28 15:38:27;;;;;;;;;;;;;;;;;;7366981;19;817;-66
2023/04/28 15:40:55;;;;;;;;;;;;;;;;;;7364976;19;1923;-65
2023/04/28 15:43:24;;;;;;;;;;;;;;;;;;7366319;19;1314;-64
2023/04/28 15:45:52;;;;;;;;;;;;;;;;;;7367887;19;861;-63
2023/04/28 15:48:22;;;;;;;;;;;;;;;;;;7366172;19;849;-65
2023/04/28 15:50:50;;;;;;;;;;;;;;;;;;7367752;19;831;-69
2023/04/28 15:53:18;;;;;;;;;;;;;;;;;;7366088;19;1333;-65
2023/04/28 15:55:47;;;;;;;;;;;;;;;;;;7367774;19;838;-64
2023/04/28 15:58:15;;;;;;;;;;;;;;;;;;7366961;19;826;-64
2023/04/28 16:00:44;;;;;;;;;;;;;;;;;;7364880;19;1842;-67
2023/04/28 16:03:12;;;;;;;;;;;;;;;;;;7365879;19;1344;-64
2023/04/28 16:05:40;;;;;;;;;;;;;;;;;;7367483;19;851;-63
2023/04/28 16:08:09;;;;;;;;;;;;;;;;;;7366983;19;851;-62
2023/04/28 16:10:37;;;;;;;;;;;;;;;;;;7366969;19;836;-61
2023/04/28 16:13:09;;;;;;;;;;;;;;;;;;7363350;19;1326;-60
2023/04/28 16:15:38;;;;;;;;;;;;;;;;;;7367654;19;740;-63
2023/04/28 16:18:07;;;;;;;;;;;;;;;;;;7366659;19;838;-61
2023/04/28 16:20:35;;;;;;;;;;;;;;;;;;7364632;19;1866;-61
2023/04/28 16:23:03;;;;;;;;;;;;;;;;;;7365192;19;1310;-62
2023/04/28 16:25:31;;;;;;;;;;;;;;;;;;7366757;19;771;-61
2023/04/28 16:28:00;;;;;;;;;;;;;;;;;;7366149;19;866;-66
2023/04/28 16:30:28;;;;;;;;;;;;;;;;;;7367491;19;776;-63
2023/04/28 16:32:57;;;;;;;;;;;;;;;;;;7364763;19;1302;-65
2023/04/28 16:35:25;;;;;;;;;;;;;;;;;;7367338;19;790;-63
2023/04/28 16:37:53;;;;;;;;;;;;;;;;;;7369202;19;862;-64
2023/04/28 16:40:22;;;;;;;;;;;;;;;;;;7365848;19;1847;-65
2023/04/28 16:42:50;;;;;;;;;;;;;;;;;;7367087;19;1306;-64
2023/04/28 16:45:18;;;;;;;;;;;;;;;;;;7368473;19;884;-66
2023/04/28 16:47:46;;;;;;;;;;;;;;;;;;7368590;19;817;-67
2023/04/28 16:50:16;;;;;;;;;;;;;;;;;;7368229;19;971;-67
2023/04/28 16:52:44;;;;;;;;;;;;;;;;;;7367092;19;1309;-65
2023/04/28 16:55:13;;;;;;;;;;;;;;;;;;7367946;19;795;-66
2023/04/28 16:57:41;;;;;;;;;;;;;;;;;;7367815;19;888;-69
2023/04/28 17:00:10;;;;;;;;;;;;;;;;;;7368009;19;1849;-64
2023/04/28 17:02:38;;;;;;;;;;;;;;;;;;7367390;19;1274;-64
2023/04/28 17:05:06;;;;;;;;;;;;;;;;;;7370544;19;728;-61
2023/04/28 17:07:34;;;;;;;;;;;;;;;;;;7370349;19;814;-65
2023/04/28 17:10:02;;;;;;;;;;;;;;;;;;7369047;19;863;-66
2023/04/28 17:12:31;;;;;;;;;;;;;;;;;;7365158;19;1293;-64
2023/04/28 17:14:59;;;;;;;;;;;;;;;;;;7367187;19;829;-64
2023/04/28 17:17:27;;;;;;;;;;;;;;;;;;7366373;19;790;-66
2023/04/28 17:19:57;;;;;;;;;;;;;;;;;;7365570;19;1849;-66
2023/04/28 17:22:25;;;;;;;;;;;;;;;;;;7365135;19;1282;-68